Latest Weather Observations for Leigh Creek

IDS60801

Issued at 8:31 pm CST Thursday 24 September 2020 (issued every 10 minutes, with the page automatically refreshed every 10 minutes)

About weather observations | Map of weather stations | Latest weather observations for SA | Other Formats
Station Details ID: 017110 Name: LEIGH CREEK AIRPORT Lat: -30.60 Lon: 138.42 Height: 258.8 m
Data from the previous 72 hours. | See also: Recent months at Leigh Creek
Date/Time
CST
Temp
°C
App
Temp
°C
Dew
Point
°C
Rel
Hum
%
Delta-T
°C
Wind Press
QNH
hPa
Press
MSL
hPa
Rain since
9am
mm
Dir  Spd
km/h
Gust
km/h
Spd
kts
Gust
kts
24/08:30pm 15.7 10.8 2.2 40 6.1 WNW 17 26 9 14 1014.6 1014.2 0.0
24/08:00pm 15.9 11.0 2.0 39 6.3 WNW 17 26 9 14 1014.7 1014.3 0.0
24/07:30pm 15.9 11.0 2.0 39 6.3 W 17 22 9 12 1014.7 1014.3 0.0
24/07:00pm 16.3 10.4 1.6 37 6.6 W 22 32 12 17 1014.7 1014.3 0.0
24/06:30pm 16.4 10.9 1.7 37 6.6 W 20 30 11 16 1014.6 1014.2 0.0
24/06:00pm 16.8 10.5 1.7 36 6.8 W 24 32 13 17 1014.6 1014.2 0.0
24/05:30pm 17.3 9.8 1.3 34 7.2 W 30 41 16 22 1014.7 1014.3 0.0
24/05:00pm 17.4 10.7 1.4 34 7.2 WSW 26 39 14 21 1014.9 1014.5 0.0
24/04:30pm 17.4 11.5 1.4 34 7.2 W 22 33 12 18 1014.9 1014.5 0.0
24/04:00pm 17.4 10.3 1.4 34 7.2 W 28 35 15 19 1015.2 1014.8 0.0
24/03:30pm 17.7 11.4 1.7 34 7.3 WSW 24 39 13 21 1015.3 1014.9 0.0
24/03:00pm 17.4 10.4 1.8 35 7.1 W 28 43 15 23 1015.8 1015.4 0.0
24/02:30pm 17.1 10.5 2.3 37 6.8 W 26 33 14 18 1016.1 1015.7 0.0
24/02:00pm 16.4 10.2 2.1 38 6.5 WNW 24 35 13 19 1016.8 1016.3 0.0
24/01:30pm 16.5 10.4 2.5 39 6.4 W 24 37 13 20 1017.3 1016.8 0.0
24/01:00pm 16.4 10.4 3.1 41 6.2 W 24 33 13 18 1017.6 1017.1 0.0
24/12:30pm 15.2 9.8 2.7 43 5.7 WSW 20 30 11 16 1018.1 1017.7 0.0
24/12:00pm 15.4 10.7 2.9 43 5.7 WSW 17 28 9 15 1018.5 1018.1 0.0
24/11:30am 15.8 10.6 3.3 43 5.8 SW 20 30 11 16 1019.0 1018.6 0.0
24/11:00am 15.3 11.3 3.1 44 5.6 SW 13 22 7 12 1019.5 1019.1 0.0
24/10:30am 14.2 9.9 3.4 48 4.9 SW 15 24 8 13 1019.9 1019.5 0.0
24/10:00am 13.5 9.6 3.6 51 4.5 SSW 13 22 7 12 1020.0 1019.6 0.0
24/09:30am 12.6 8.1 4.3 57 3.8 S 17 22 9 12 1020.4 1020.0 0.0
24/09:00am 12.4 8.1 5.3 62 3.3 SSW 17 24 9 13 1020.9 1020.4 0.0
24/08:30am 11.7 7.0 5.3 65 3.0 SSW 19 22 10 12 1021.3 1020.9 0.0
24/08:00am 11.7 7.5 5.6 66 2.9 SSW 17 22 9 12 1021.5 1021.1 0.0
24/07:30am 10.5 6.1 6.5 76 1.9 SSW 19 22 10 12 1021.2 1020.8 0.0
24/07:00am 9.8 6.5 6.2 78 1.7 SSW 13 15 7 8 1020.9 1020.4 0.0
24/06:30am 8.6 5.5 5.5 81 1.4 SSW 11 13 6 7 1020.4 1020.0 0.0
24/06:00am 8.8 6.1 5.5 80 1.5 SSW 9 9 5 5 1020.2 1019.8 0.0
24/05:30am 9.0 6.3 5.7 80 1.5 SSW 9 13 5 7 1019.9 1019.5 0.0
24/05:00am 9.2 6.2 5.8 79 1.6 SSW 11 13 6 7 1019.7 1019.3 0.0
24/04:30am 9.2 6.5 5.6 78 1.7 SSW 9 11 5 6 1019.8 1019.4 0.0
24/04:00am 9.2 5.7 5.4 77 1.7 SSW 13 15 7 8 1019.8 1019.4 0.0
24/03:30am 9.7 6.6 5.5 75 1.9 SSW 11 17 6 9 1020.0 1019.6 0.0
24/03:00am 9.9 8.1 5.5 74 2.0 SSW 4 11 2 6 1020.1 1019.7 0.0
24/02:30am 10.2 7.8 5.4 72 2.2 SSW 7 11 4 6 1020.3 1019.9 0.0
24/02:00am 10.6 7.0 4.9 68 2.6 SSW 13 17 7 9 1020.5 1020.1 0.0
24/01:30am 11.3 6.3 4.5 63 3.1 SSW 20 26 11 14 1020.9 1020.4 0.0
24/01:00am 11.9 7.2 3.2 55 3.9 SSW 17 20 9 11 1021.0 1020.6 0.0
24/12:30am 12.8 8.3 2.1 48 4.7 SW 15 20 8 11 1021.2 1020.8 0.0
24/12:00am 13.3 8.4 1.9 46 5.0 SW 17 20 9 11 1021.3 1020.9 0.0
 
Date/Time
CST
Temp
°C
App
Temp
°C
Dew
Point
°C
Rel
Hum
%
Delta-T
°C
Wind Press
QNH
hPa
Press
MSL
hPa
Rain since
9am
mm
Dir  Spd
km/h
Gust
km/h
Spd
kts
Gust
kts
23/11:30pm 14.0 8.5 1.6 43 5.4 SW 20 24 11 13 1021.3 1020.9 0.0
23/11:00pm 13.4 9.5 1.1 43 5.3 SSW 11 15 6 8 1021.3 1020.9 0.0
23/10:30pm 14.1 9.4 0.7 40 5.8 SW 15 20 8 11 1021.5 1021.1 0.0
23/10:00pm 14.2 9.8 0.5 39 5.9 WSW 13 17 7 9 1021.8 1021.4 0.0
23/09:30pm 14.5 9.7 0.0 37 6.2 WSW 15 19 8 10 1022.0 1021.6 0.0
23/09:00pm 14.6 10.2 0.1 37 6.2 SW 13 17 7 9 1021.9 1021.5 0.0
23/08:30pm 15.0 9.9 0.8 38 6.2 SW 17 24 9 13 1021.7 1021.3 0.0
23/08:00pm 15.6 10.2 1.4 38 6.3 SW 19 28 10 15 1021.6 1021.2 0.0
23/07:30pm 15.8 10.9 1.9 39 6.2 SW 17 24 9 13 1021.6 1021.2 0.0
23/07:00pm 16.0 10.5 1.7 38 6.4 SW 20 26 11 14 1021.5 1021.1 0.0
23/06:30pm 16.3 11.0 2.0 38 6.4 SSW 19 28 10 15 1021.3 1020.9 0.0
23/06:00pm 16.9 11.4 1.8 36 6.8 SW 20 28 11 15 1021.0 1020.6 0.0
23/05:30pm 17.5 11.2 1.5 34 7.2 SW 24 33 13 18 1020.8 1020.3 0.0
23/05:00pm 18.0 11.1 2.3 35 7.2 SW 28 39 15 21 1020.4 1020.0 0.0
23/04:30pm 18.4 11.8 2.3 34 7.4 SW 26 39 14 21 1020.3 1019.9 0.0
23/04:00pm 18.7 11.8 2.5 34 7.5 SW 28 39 15 21 1020.1 1019.7 0.0
23/03:30pm 18.5 12.4 2.8 35 7.3 SW 24 41 13 22 1020.2 1019.8 0.0
23/03:00pm 18.7 11.9 2.9 35 7.4 SSW 28 39 15 21 1020.2 1019.8 0.0
23/02:35pm 18.4 11.2 3.1 36 7.2 SW 30 48 16 26 1020.3 1019.9 0.0
23/02:30pm 18.7 10.9 2.9 35 7.4 SW 33 48 18 26 1020.4 1020.0 0.0
23/02:00pm 18.7 11.5 2.9 35 7.4 SW 30 44 16 24 1020.7 1020.2 0.0
23/01:30pm 17.5 10.1 4.1 41 6.4 SW 32 44 17 24 1021.2 1020.8 0.0
23/01:00pm 17.7 11.0 3.9 40 6.6 SSW 28 43 15 23 1021.4 1021.0 0.0
23/12:30pm 17.8 11.2 4.4 41 6.4 SW 28 41 15 22 1021.7 1021.3 0.0
23/12:00pm 17.0 10.5 4.7 44 5.9 SW 28 39 15 21 1022.1 1021.7 0.0
23/11:30am 16.4 10.0 5.4 48 5.3 SW 28 41 15 22 1022.5 1022.1 0.0
23/11:00am 16.4 9.6 5.1 47 5.5 SSW 30 37 16 20 1022.6 1022.2 0.0
23/10:30am 16.0 10.0 5.3 49 5.1 SSW 26 39 14 21 1022.7 1022.3 0.0
23/10:00am 14.5 7.7 5.0 53 4.5 SSW 30 41 16 22 1022.9 1022.5 0.0
23/09:30am 13.9 7.5 5.3 56 4.1 SSW 28 39 15 21 1023.1 1022.7 0.0
23/09:00am 13.1 6.0 5.5 60 3.6 SSW 32 41 17 22 1022.9 1022.5 0.0
23/08:30am 12.4 6.1 5.8 64 3.1 SSW 28 35 15 19 1022.9 1022.5 0.0
23/08:00am 12.4 6.5 6.0 65 3.1 SSW 26 33 14 18 1022.7 1022.3 0.0
23/07:55am 12.3 6.8 6.1 66 3.0 SSW 24 33 13 18 1022.7 1022.3 0.0
23/07:36am 11.9 6.8 6.0 67 2.8 SSW 22 28 12 15 1022.4 1022.0 0.0
23/07:30am 11.7 7.6 6.0 68 2.7 SSW 17 28 9 15 1022.4 1022.0 0.0
23/07:00am 10.8 7.6 5.3 69 2.6 S 11 17 6 9 1022.2 1021.8 0.0
23/06:30am 9.9 6.6 4.7 70 2.4 S 11 15 6 8 1022.0 1021.6 0.0
23/06:00am 9.6 6.3 4.4 70 2.3 S 11 17 6 9 1021.4 1021.0 0.0
23/05:30am 10.2 7.6 4.4 67 2.6 S 7 15 4 8 1021.2 1020.8 0.0
23/05:00am 10.7 6.3 4.6 66 2.8 SSW 17 28 9 15 1020.9 1020.4 0.0
23/04:30am 11.1 7.0 4.1 62 3.2 SW 15 24 8 13 1020.4 1020.0 0.0
23/04:00am 11.4 7.2 3.7 59 3.5 SW 15 19 8 10 1020.4 1020.0 0.0
23/03:30am 11.9 7.3 3.7 57 3.7 SW 17 22 9 12 1020.3 1019.9 0.0
23/03:00am 12.2 7.6 3.7 56 3.8 SW 17 22 9 12 1020.4 1020.0 0.0
23/02:30am 12.0 6.8 3.5 56 3.8 SSW 20 26 11 14 1020.4 1020.0 0.0
23/02:00am 12.3 7.1 3.5 55 4.0 SSW 20 26 11 14 1020.4 1020.0 0.0
23/01:30am 12.4 7.2 3.4 54 4.0 SSW 20 28 11 15 1020.4 1020.0 0.0
23/01:00am 12.8 7.2 3.2 52 4.3 SSW 22 30 12 16 1020.4 1020.0 0.0
23/12:30am 13.4 8.2 3.5 51 4.5 SSW 20 26 11 14 1020.3 1019.9 0.0
23/12:00am 13.7 8.6 3.2 49 4.8 SSW 19 26 10 14 1020.2 1019.8 0.0
 
Date/Time
CST
Temp
°C
App
Temp
°C
Dew
Point
°C
Rel
Hum
%
Delta-T
°C
Wind Press
QNH
hPa
Press
MSL
hPa
Rain since
9am
mm
Dir  Spd
km/h
Gust
km/h
Spd
kts
Gust
kts
22/11:30pm 14.2 9.1 2.8 46 5.1 SSW 19 26 10 14 1020.1 1019.7 0.0
22/11:00pm 14.2 9.8 2.5 45 5.3 SSW 15 20 8 11 1020.0 1019.6 0.0
22/10:30pm 14.8 10.0 2.7 44 5.5 SSW 17 20 9 11 1019.9 1019.5 0.0
22/10:00pm 14.6 10.6 2.8 45 5.4 SSW 13 19 7 10 1019.9 1019.5 0.0
22/09:30pm 15.0 10.3 2.9 44 5.5 SSW 17 20 9 11 1019.9 1019.5 0.0
22/09:00pm 15.5 10.4 3.0 43 5.7 SSW 19 26 10 14 1019.8 1019.4 0.0
22/08:30pm 15.8 10.6 2.6 41 6.0 SSW 19 24 10 13 1019.5 1019.1 0.0
22/08:00pm 16.1 11.3 2.5 40 6.2 SW 17 22 9 12 1019.2 1018.8 0.0
22/07:30pm 16.9 10.6 1.8 36 6.8 WSW 24 33 13 18 1018.8 1018.4 0.0
22/07:00pm 17.1 10.3 1.1 34 7.1 SW 26 35 14 19 1018.4 1018.0 0.0
22/06:30pm 17.6 11.0 2.0 35 7.1 SW 26 33 14 18 1018.0 1017.6 0.0
22/06:00pm 18.1 12.2 1.6 33 7.5 WSW 22 32 12 17 1017.5 1017.0 0.0
22/05:30pm 18.7 12.0 1.7 32 7.8 W 26 41 14 22 1017.2 1016.7 0.0
22/05:00pm 19.0 12.0 2.0 32 7.9 WSW 28 35 15 19 1016.9 1016.4 0.0
22/04:30pm 19.3 13.0 1.8 31 8.1 W 24 37 13 20 1016.6 1016.1 0.0
22/04:00pm 19.7 12.2 1.2 29 8.5 W 30 39 16 21 1016.4 1016.0 0.0
22/03:30pm 19.8 13.5 1.7 30 8.4 WSW 24 41 13 22 1016.4 1016.0 0.0
22/03:00pm 19.2 13.2 1.2 30 8.2 SW 22 35 12 19 1016.4 1016.0 0.0
22/02:30pm 19.3 12.7 2.2 32 7.9 WSW 26 37 14 20 1016.6 1016.1 0.0
22/02:00pm 18.5 11.4 1.5 32 7.7 WSW 28 43 15 23 1016.8 1016.3 0.0
22/01:30pm 18.6 11.3 2.4 34 7.5 W 30 41 16 22 1017.1 1016.6 0.0
22/01:00pm 18.6 12.9 2.9 35 7.4 WSW 22 39 12 21 1017.3 1016.8 0.0
22/12:30pm 17.8 11.3 2.9 37 6.9 SW 26 35 14 19 1017.6 1017.1 0.0
22/12:00pm 17.1 10.2 2.7 38 6.6 WSW 28 41 15 22 1017.9 1017.5 0.0
22/11:30am 16.7 10.1 2.3 38 6.6 WSW 26 39 14 21 1018.2 1017.8 0.0
22/11:00am 16.8 10.1 3.5 41 6.2 WSW 28 39 15 21 1018.6 1018.2 0.0
22/10:30am 16.0 9.5 2.4 40 6.2 W 26 41 14 22 1018.6 1018.2 0.0
22/10:00am 15.0 9.4 5.5 53 4.6 WSW 24 41 13 22 1018.5 1018.1 0.0
22/09:30am 15.3 10.2 6.1 54 4.5 WSW 22 37 12 20 1018.7 1018.3 0.0
22/09:00am 14.8 9.7 6.1 56 4.2 WSW 22 33 12 18 1018.6 1018.2 0.0
22/08:30am 13.9 10.1 5.8 58 3.9 WSW 15 24 8 13 1018.3 1017.9 0.0
22/08:00am 13.3 8.1 5.7 60 3.6 WSW 22 30 12 16 1018.0 1017.6 0.0
22/07:30am 12.7 8.0 6.1 64 3.2 SW 20 28 11 15 1017.7 1017.3 0.0
22/07:00am 12.3 8.5 5.9 65 3.0 SW 15 24 8 13 1017.3 1016.8 0.0
22/06:30am 11.4 7.9 5.5 67 2.8 SSW 13 17 7 9 1016.7 1016.2 0.0
22/06:00am 11.9 7.7 5.5 65 3.0 SSW 17 22 9 12 1016.2 1015.8 0.0
22/05:30am 11.9 8.0 5.3 64 3.1 SSW 15 20 8 11 1015.8 1015.4 0.0
22/05:00am 11.7 8.3 5.8 67 2.8 SSW 13 17 7 9 1015.4 1015.0 0.0
22/04:30am 11.9 8.5 6.0 67 2.8 SSW 13 17 7 9 1015.2 1014.8 0.0
22/04:00am 11.9 8.5 5.8 66 2.9 SSW 13 15 7 8 1015.0 1014.6 0.0
22/03:30am 12.4 8.7 6.2 66 3.0 SSW 15 20 8 11 1014.9 1014.5 0.0
22/03:00am 12.6 8.5 6.2 65 3.1 SSW 17 20 9 11 1015.1 1014.7 0.0
22/02:30am 12.8 8.8 6.6 66 3.0 SSW 17 22 9 12 1015.3 1014.9 0.0
22/02:00am 13.0 9.1 7.0 67 2.9 SSW 17 22 9 12 1015.3 1014.9 0.0
22/01:30am 13.6 8.8 7.2 65 3.2 SSW 22 32 12 17 1015.3 1014.9 0.0
22/01:00am 14.2 8.7 7.5 64 3.3 SSW 26 35 14 19 1015.3 1014.9 0.0
22/12:30am 14.9 10.4 7.0 59 3.9 SSW 20 28 11 15 1015.1 1014.7 0.0
22/12:00am 15.6 10.3 6.6 55 4.5 SSW 24 32 13 17 1014.9 1014.5 0.0
 
Date/Time
CST
Temp
°C
App
Temp
°C
Dew
Point
°C
Rel
Hum
%
Delta-T
°C
Wind Press
QNH
hPa
Press
MSL
hPa
Rain since
9am
mm
Dir  Spd
km/h
Gust
km/h
Spd
kts
Gust
kts
21/11:30pm 15.8 11.5 7.1 56 4.4 SSW 19 30 10 16 1014.9 1014.5 0.0
21/11:00pm 16.3 11.5 7.3 55 4.5 SSW 22 30 12 16 1014.6 1014.2 0.0
21/10:30pm 17.8 10.1 2.2 35 7.2 WSW 32 50 17 27 1014.2 1013.7 0.0
21/10:25pm 18.1 10.7 2.0 34 7.4 WSW 30 50 16 27 1014.0 1013.5 0.0
21/10:23pm 18.1 11.0 1.6 33 7.5 WSW 28 43 15 23 1014.1 1013.6 0.0
21/10:00pm 17.4 12.3 1.0 33 7.3 W 17 20 9 11 1014.0 1013.5 0.0
21/09:30pm 17.6 12.8 0.3 31 7.6 W 15 19 8 10 1013.7 1013.2 0.0
21/09:00pm 18.1 13.3 0.3 30 7.9 WNW 15 20 8 11 1013.4 1012.9 0.0

Other formats

Comma delimited format used in spreadsheet applications
http://www.bom.gov.au/fwo/IDS60801/IDS60801.94674.axf

JavaScript Object Notation format (JSON) in row-major order
http://www.bom.gov.au/fwo/IDS60801/IDS60801.94674.json

Data quality

Most of these data are generated automatically and are frequently updated. Quality checks on data are not normally performed. It is possible for incorrect values to appear. Refer to information at About Latest Weather Observations and please check the disclaimer before using these data.